LTCM Airport Information

Runway Information
Airport Frequencies
Airport Navaids
Type VOR-DME Name Sinop Frequency 114000 KHZ
Type NDB Name Sinop Frequency 465 KHZ
Airport Weather Information & NOTAM
ADDS - METARS form results

(2017 UTC 14 November 2018)
Data provider http://aviationweather.gov/metar/data/
 
Forecast for: LTCM (SINOP AIRPORT , TR)
Text: TAF LTCM 141340Z 1415/1424 26009KT 9999 BKN028
Forecast period: 1500 UTC 14 November 2018 to 0000 UTC 15 November 2018
Forecast type: FROM: standard forecast or significant change
Winds: from the W (260 degrees) at 10 MPH (9 knots; 4.6 m/s)
Visibility: 6 or more miles 10+ km)
Ceiling: 2800 feet AGL
Clouds: broken clouds at 2800 feet AGL
Weather: no significant weather forecast for this period